sensor_id;sensor_type;location;lat;lon;timestamp;pressure;altitude;pressure_sealevel;temperature;humidity
45327;BME280;31062;49.678;24.560;2023-04-01T00:02:16;96680.94;;;9.38;74.89
45327;BME280;31062;49.678;24.560;2023-04-01T00:05:01;96666.75;;;9.32;74.79
45327;BME280;31062;49.678;24.560;2023-04-01T00:07:47;96711.22;;;9.36;75.25
45327;BME280;31062;49.678;24.560;2023-04-01T00:10:32;96669.53;;;9.32;75.25
45327;BME280;31062;49.678;24.560;2023-04-01T00:13:19;96589.75;;;8.67;75.31
45327;BME280;31062;49.678;24.560;2023-04-01T00:16:05;96483.41;;;7.96;76.07
45327;BME280;31062;49.678;24.560;2023-04-01T00:19:04;96648.56;;;9.04;76.47
45327;BME280;31062;49.678;24.560;2023-04-01T00:21:49;96600.19;;;8.80;76.39
45327;BME280;31062;49.678;24.560;2023-04-01T00:24:35;96641.09;;;9.07;76.54
45327;BME280;31062;49.678;24.560;2023-04-01T00:27:21;96605.94;;;8.84;76.62
45327;BME280;31062;49.678;24.560;2023-04-01T00:30:06;96627.53;;;8.99;77.01
45327;BME280;31062;49.678;24.560;2023-04-01T00:32:53;96656.97;;;8.94;77.44
45327;BME280;31062;49.678;24.560;2023-04-01T00:35:38;96599.69;;;8.72;77.88
45327;BME280;31062;49.678;24.560;2023-04-01T00:38:24;96590.47;;;8.67;78.13
45327;BME280;31062;49.678;24.560;2023-04-01T00:41:11;96617.56;;;8.82;78.32
45327;BME280;31062;49.678;24.560;2023-04-01T00:44:19;96497.22;;;7.96;78.16
45327;BME280;31062;49.678;24.560;2023-04-01T00:47:05;96573.69;;;8.51;78.32
45327;BME280;31062;49.678;24.560;2023-04-01T00:49:52;96614.97;;;8.73;78.72
45327;BME280;31062;49.678;24.560;2023-04-01T00:52:39;96594.78;;;8.58;78.80
45327;BME280;31062;49.678;24.560;2023-04-01T00:55:27;96420.91;;;7.42;79.12
45327;BME280;31062;49.678;24.560;2023-04-01T00:58:16;96615.34;;;8.55;79.35
45327;BME280;31062;49.678;24.560;2023-04-01T01:01:04;96398.72;;;7.28;79.77
45327;BME280;31062;49.678;24.560;2023-04-01T01:03:51;96541.50;;;8.09;79.64
45327;BME280;31062;49.678;24.560;2023-04-01T01:16:26;96447.66;;;7.51;80.69
45327;BME280;31062;49.678;24.560;2023-04-01T01:19:35;96587.34;;;8.49;80.72
45327;BME280;31062;49.678;24.560;2023-04-01T01:29:09;96573.41;;;8.47;81.89
45327;BME280;31062;49.678;24.560;2023-04-01T01:35:27;96570.91;;;8.51;81.79
45327;BME280;31062;49.678;24.560;2023-04-01T01:38:17;96568.16;;;8.51;81.97
45327;BME280;31062;49.678;24.560;2023-04-01T01:41:12;96528.50;;;8.12;81.82
45327;BME280;31062;49.678;24.560;2023-04-01T01:43:59;96555.41;;;8.46;82.03
45327;BME280;31062;49.678;24.560;2023-04-01T01:46:48;96524.56;;;8.27;81.60
45327;BME280;31062;49.678;24.560;2023-04-01T01:49:35;96507.16;;;8.01;81.78
45327;BME280;31062;49.678;24.560;2023-04-01T01:52:23;96555.88;;;8.54;81.67
45327;BME280;31062;49.678;24.560;2023-04-01T01:55:33;96528.53;;;8.35;82.09
45327;BME280;31062;49.678;24.560;2023-04-01T01:58:34;96474.78;;;7.90;81.84
45327;BME280;31062;49.678;24.560;2023-04-01T02:01:29;96370.44;;;7.28;81.98
45327;BME280;31062;49.678;24.560;2023-04-01T02:04:25;96546.06;;;8.51;82.11
45327;BME280;31062;49.678;24.560;2023-04-01T02:07:21;96410.47;;;7.52;82.76
45327;BME280;31062;49.678;24.560;2023-04-01T02:10:09;96349.25;;;7.19;82.82
45327;BME280;31062;49.678;24.560;2023-04-01T02:12:58;96572.94;;;8.51;83.48
45327;BME280;31062;49.678;24.560;2023-04-01T02:15:47;96387.25;;;7.44;83.94
45327;BME280;31062;49.678;24.560;2023-04-01T02:18:36;96549.88;;;8.46;84.50
45327;BME280;31062;49.678;24.560;2023-04-01T02:21:27;96543.66;;;8.46;84.39
45327;BME280;31062;49.678;24.560;2023-04-01T02:24:15;96346.47;;;7.19;84.72
45327;BME280;31062;49.678;24.560;2023-04-01T02:27:01;96428.00;;;7.68;85.16
45327;BME280;31062;49.678;24.560;2023-04-01T02:29:48;96504.28;;;8.22;85.10
45327;BME280;31062;49.678;24.560;2023-04-01T02:32:36;96494.06;;;8.13;85.36
45327;BME280;31062;49.678;24.560;2023-04-01T02:35:23;96389.50;;;7.47;85.45
45327;BME280;31062;49.678;24.560;2023-04-01T02:38:09;96513.38;;;8.25;86.14
45327;BME280;31062;49.678;24.560;2023-04-01T02:40:59;96365.91;;;7.32;86.05
45327;BME280;31062;49.678;24.560;2023-04-01T02:43:46;96473.22;;;7.98;86.23
45327;BME280;31062;49.678;24.560;2023-04-01T02:46:32;96538.34;;;8.62;86.45
45327;BME280;31062;49.678;24.560;2023-04-01T02:49:17;96548.19;;;8.65;86.24
45327;BME280;31062;49.678;24.560;2023-04-01T02:52:03;96376.44;;;7.48;85.99
45327;BME280;31062;49.678;24.560;2023-04-01T02:54:49;96557.69;;;8.62;86.15
45327;BME280;31062;49.678;24.560;2023-04-01T02:57:35;96541.69;;;8.72;86.51
45327;BME280;31062;49.678;24.560;2023-04-01T03:00:20;96508.13;;;8.52;85.85
45327;BME280;31062;49.678;24.560;2023-04-01T03:03:06;96471.63;;;8.30;86.49
45327;BME280;31062;49.678;24.560;2023-04-01T03:05:52;96528.03;;;8.62;86.35
45327;BME280;31062;49.678;24.560;2023-04-01T03:08:41;96531.34;;;8.72;86.23
45327;BME280;31062;49.678;24.560;2023-04-01T03:11:27;96357.50;;;7.54;86.90
45327;BME280;31062;49.678;24.560;2023-04-01T03:14:12;96529.53;;;8.77;86.96
45327;BME280;31062;49.678;24.560;2023-04-01T03:16:58;96527.03;;;8.81;86.73
45327;BME280;31062;49.678;24.560;2023-04-01T03:19:45;96525.78;;;8.84;86.84
45327;BME280;31062;49.678;24.560;2023-04-01T03:22:31;96475.69;;;8.41;86.59
45327;BME280;31062;49.678;24.560;2023-04-01T03:25:17;96559.66;;;8.96;86.59
45327;BME280;31062;49.678;24.560;2023-04-01T03:28:03;96409.03;;;7.51;86.56
45327;BME280;31062;49.678;24.560;2023-04-01T03:30:49;96471.38;;;8.49;85.97
45327;BME280;31062;49.678;24.560;2023-04-01T03:33:35;96512.88;;;9.00;86.21
45327;BME280;31062;49.678;24.560;2023-04-01T03:36:20;96514.66;;;9.07;85.68
45327;BME280;31062;49.678;24.560;2023-04-01T03:39:06;96498.84;;;8.96;85.70
45327;BME280;31062;49.678;24.560;2023-04-01T03:41:58;96380.41;;;8.16;85.57
45327;BME280;31062;49.678;24.560;2023-04-01T03:44:44;96473.38;;;8.60;85.35
45327;BME280;31062;49.678;24.560;2023-04-01T03:47:30;96329.06;;;7.74;85.48
45327;BME280;31062;49.678;24.560;2023-04-01T03:50:15;96471.50;;;8.77;85.03
45327;BME280;31062;49.678;24.560;2023-04-01T03:53:01;96519.97;;;9.03;85.65
45327;BME280;31062;49.678;24.560;2023-04-01T03:55:47;96515.75;;;9.02;85.30
45327;BME280;31062;49.678;24.560;2023-04-01T03:58:33;96442.34;;;8.25;85.38
45327;BME280;31062;49.678;24.560;2023-04-01T04:01:21;96557.22;;;9.02;85.54
45327;BME280;31062;49.678;24.560;2023-04-01T04:04:13;96497.72;;;8.76;85.69
45327;BME280;31062;49.678;24.560;2023-04-01T04:07:00;96415.13;;;8.08;85.86
45327;BME280;31062;49.678;24.560;2023-04-01T04:09:51;96541.41;;;8.91;85.67
45327;BME280;31062;49.678;24.560;2023-04-01T04:12:36;96539.72;;;8.86;85.62
45327;BME280;31062;49.678;24.560;2023-04-01T04:15:22;96526.00;;;8.88;85.79
45327;BME280;31062;49.678;24.560;2023-04-01T04:18:08;96509.09;;;8.82;85.76
45327;BME280;31062;49.678;24.560;2023-04-01T04:20:54;96504.97;;;8.57;85.61
45327;BME280;31062;49.678;24.560;2023-04-01T04:23:40;96346.47;;;7.65;85.58
45327;BME280;31062;49.678;24.560;2023-04-01T04:26:26;96513.31;;;8.83;85.39
45327;BME280;31062;49.678;24.560;2023-04-01T04:29:17;96487.41;;;8.65;85.87
45327;BME280;31062;49.678;24.560;2023-04-01T04:32:03;96348.38;;;7.63;85.57
45327;BME280;31062;49.678;24.560;2023-04-01T04:34:48;96525.34;;;8.76;85.81
45327;BME280;31062;49.678;24.560;2023-04-01T04:37:34;96536.84;;;8.84;85.92
45327;BME280;31062;49.678;24.560;2023-04-01T04:40:19;96519.78;;;8.87;86.13
45327;BME280;31062;49.678;24.560;2023-04-01T04:43:05;96351.75;;;7.61;86.07
45327;BME280;31062;49.678;24.560;2023-04-01T04:45:51;96376.63;;;7.87;85.70
45327;BME280;31062;49.678;24.560;2023-04-01T04:48:37;96517.50;;;8.84;85.79
45327;BME280;31062;49.678;24.560;2023-04-01T04:51:22;96350.06;;;7.68;86.31
45327;BME280;31062;49.678;24.560;2023-04-01T04:54:08;96483.56;;;8.70;86.32
45327;BME280;31062;49.678;24.560;2023-04-01T04:57:10;96450.75;;;8.27;85.76
45327;BME280;31062;49.678;24.560;2023-04-01T05:00:03;96529.97;;;8.96;86.00
45327;BME280;31062;49.678;24.560;2023-04-01T05:03:13;96362.19;;;7.74;85.79
45327;BME280;31062;49.678;24.560;2023-04-01T05:05:59;96341.16;;;7.69;85.44
45327;BME280;31062;49.678;24.560;2023-04-01T05:08:44;96525.28;;;8.99;85.97
45327;BME280;31062;49.678;24.560;2023-04-01T05:11:30;96408.75;;;8.17;85.68
45327;BME280;31062;49.678;24.560;2023-04-01T05:14:15;96534.50;;;9.04;85.66
45327;BME280;31062;49.678;24.560;2023-04-01T05:17:10;96535.09;;;9.02;86.19
45327;BME280;31062;49.678;24.560;2023-04-01T05:19:56;96376.91;;;7.91;85.55
45327;BME280;31062;49.678;24.560;2023-04-01T05:22:42;96506.28;;;8.56;85.84
45327;BME280;31062;49.678;24.560;2023-04-01T05:25:28;96538.75;;;8.93;86.34
45327;BME280;31062;49.678;24.560;2023-04-01T05:28:15;96535.88;;;8.91;86.04
45327;BME280;31062;49.678;24.560;2023-04-01T05:31:03;96358.72;;;7.62;85.83
45327;BME280;31062;49.678;24.560;2023-04-01T05:33:53;96541.19;;;8.87;86.48
45327;BME280;31062;49.678;24.560;2023-04-01T05:36:39;96445.94;;;8.28;86.06
45327;BME280;31062;49.678;24.560;2023-04-01T05:39:27;96526.28;;;8.80;86.06
45327;BME280;31062;49.678;24.560;2023-04-01T05:42:12;96539.47;;;8.93;86.79
45327;BME280;31062;49.678;24.560;2023-04-01T05:44:59;96550.09;;;8.74;86.46
45327;BME280;31062;49.678;24.560;2023-04-01T05:48:05;96489.19;;;8.72;86.58
45327;BME280;31062;49.678;24.560;2023-04-01T05:50:56;96347.41;;;7.70;86.08
45327;BME280;31062;49.678;24.560;2023-04-01T05:53:42;96538.75;;;8.93;86.59
45327;BME280;31062;49.678;24.560;2023-04-01T05:56:28;96347.28;;;7.79;86.06
45327;BME280;31062;49.678;24.560;2023-04-01T05:59:14;96341.44;;;7.73;86.20
45327;BME280;31062;49.678;24.560;2023-04-01T06:02:00;96548.59;;;8.96;86.22
45327;BME280;31062;49.678;24.560;2023-04-01T06:04:47;96535.97;;;9.05;86.72
45327;BME280;31062;49.678;24.560;2023-04-01T06:07:32;96501.78;;;8.86;86.67
45327;BME280;31062;49.678;24.560;2023-04-01T06:10:19;96498.16;;;8.84;86.60
45327;BME280;31062;49.678;24.560;2023-04-01T06:13:16;96509.97;;;8.73;86.89
45327;BME280;31062;49.678;24.560;2023-04-01T06:16:27;96525.50;;;9.03;87.01
45327;BME280;31062;49.678;24.560;2023-04-01T06:25:38;96554.34;;;9.00;87.44
45327;BME280;31062;49.678;24.560;2023-04-01T06:31:31;96562.38;;;9.08;87.67
45327;BME280;31062;49.678;24.560;2023-04-01T06:47:04;96559.81;;;9.23;88.21
45327;BME280;31062;49.678;24.560;2023-04-01T07:00:25;96319.81;;;7.70;88.11
45327;BME280;31062;49.678;24.560;2023-04-01T07:03:32;96572.78;;;9.21;88.30
45327;BME280;31062;49.678;24.560;2023-04-01T07:06:28;96573.72;;;9.25;87.98
45327;BME280;31062;49.678;24.560;2023-04-01T07:09:24;96385.25;;;8.16;87.86
45327;BME280;31062;49.678;24.560;2023-04-01T07:12:44;96546.88;;;9.39;88.29
45327;BME280;31062;49.678;24.560;2023-04-01T07:16:03;96492.66;;;9.09;88.17
45327;BME280;31062;49.678;24.560;2023-04-01T07:18:59;96513.16;;;9.18;88.21
45327;BME280;31062;49.678;24.560;2023-04-01T07:25:55;96372.25;;;8.30;87.78
45327;BME280;31062;49.678;24.560;2023-04-01T07:28:57;96447.38;;;8.77;88.09
45327;BME280;31062;49.678;24.560;2023-04-01T07:32:37;96525.72;;;9.32;88.12
45327;BME280;31062;49.678;24.560;2023-04-01T07:35:30;96407.84;;;8.49;88.23
45327;BME280;31062;49.678;24.560;2023-04-01T07:38:47;96549.38;;;9.61;88.59
45327;BME280;31062;49.678;24.560;2023-04-01T07:45:23;96576.19;;;9.70;89.08
45327;BME280;31062;49.678;24.560;2023-04-01T07:51:14;96573.63;;;9.74;88.81
45327;BME280;31062;49.678;24.560;2023-04-01T08:06:10;96552.88;;;10.00;88.24
45327;BME280;31062;49.678;24.560;2023-04-01T08:09:14;96545.00;;;10.08;88.27
45327;BME280;31062;49.678;24.560;2023-04-01T08:16:16;96541.88;;;10.28;87.56
45327;BME280;31062;49.678;24.560;2023-04-01T08:19:45;96535.50;;;10.39;88.12
45327;BME280;31062;49.678;24.560;2023-04-01T08:22:42;96548.53;;;10.50;87.20
45327;BME280;31062;49.678;24.560;2023-04-01T08:25:46;96507.59;;;10.35;86.67
45327;BME280;31062;49.678;24.560;2023-04-01T08:28:41;96502.47;;;10.43;86.75
45327;BME280;31062;49.678;24.560;2023-04-01T08:31:36;96519.91;;;10.59;85.94
45327;BME280;31062;49.678;24.560;2023-04-01T08:34:34;96538.25;;;10.80;85.80
45327;BME280;31062;49.678;24.560;2023-04-01T08:37:28;96397.03;;;9.84;85.71
45327;BME280;31062;49.678;24.560;2023-04-01T08:40:32;96556.00;;;10.88;85.40
45327;BME280;31062;49.678;24.560;2023-04-01T08:59:37;96562.16;;;11.00;84.36
45327;BME280;31062;49.678;24.560;2023-04-01T09:06:12;96528.91;;;10.73;82.71
45327;BME280;31062;49.678;24.560;2023-04-01T09:09:23;96544.22;;;10.74;82.72
45327;BME280;31062;49.678;24.560;2023-04-01T09:16:08;96566.06;;;10.95;82.89
45327;BME280;31062;49.678;24.560;2023-04-01T09:19:39;96570.25;;;10.96;82.87
45327;BME280;31062;49.678;24.560;2023-04-01T09:25:48;96519.50;;;10.51;82.98
45327;BME280;31062;49.678;24.560;2023-04-01T09:28:42;96577.34;;;10.99;82.89
45327;BME280;31062;49.678;24.560;2023-04-01T09:40:56;96553.28;;;11.18;81.95
45327;BME280;31062;49.678;24.560;2023-04-01T09:44:18;96566.00;;;11.23;81.89
45327;BME280;31062;49.678;24.560;2023-04-01T10:09:39;96585.50;;;11.25;81.36
45327;BME280;31062;49.678;24.560;2023-04-01T10:12:55;96502.56;;;10.72;81.70
45327;BME280;31062;49.678;24.560;2023-04-01T10:32:09;96424.16;;;10.85;81.69
45327;BME280;31062;49.678;24.560;2023-04-01T10:38:26;96581.91;;;12.26;79.26
45327;BME280;31062;49.678;24.560;2023-04-01T10:45:02;96573.25;;;12.51;77.54
45327;BME280;31062;49.678;24.560;2023-04-01T10:48:02;96568.94;;;12.64;77.42
45327;BME280;31062;49.678;24.560;2023-04-01T10:51:04;96574.38;;;12.78;76.08
45327;BME280;31062;49.678;24.560;2023-04-01T10:54:13;96579.03;;;12.89;75.62
45327;BME280;31062;49.678;24.560;2023-04-01T11:01:22;96577.31;;;12.97;72.40
45327;BME280;31062;49.678;24.560;2023-04-01T11:15:22;96564.28;;;13.02;68.86
45327;BME280;31062;49.678;24.560;2023-04-01T11:34:20;96562.19;;;13.18;65.83
45327;BME280;31062;49.678;24.560;2023-04-01T11:40:50;96570.38;;;13.14;67.39
45327;BME280;31062;49.678;24.560;2023-04-01T11:47:28;96547.75;;;13.06;66.84
45327;BME280;31062;49.678;24.560;2023-04-01T11:53:36;96354.38;;;11.83;67.25
45327;BME280;31062;49.678;24.560;2023-04-01T12:09:15;96513.19;;;13.11;66.60
45327;BME280;31062;49.678;24.560;2023-04-01T12:19:39;96544.53;;;13.47;65.22
45327;BME280;31062;49.678;24.560;2023-04-01T12:35:30;96393.28;;;12.67;61.11
45327;BME280;31062;49.678;24.560;2023-04-01T12:51:11;96554.25;;;14.01;61.08
45327;BME280;31062;49.678;24.560;2023-04-01T13:04:00;96569.63;;;14.02;61.51
45327;BME280;31062;49.678;24.560;2023-04-01T13:07:10;96590.44;;;13.99;60.62
45327;BME280;31062;49.678;24.560;2023-04-01T13:15:54;96565.84;;;13.94;58.15
45327;BME280;31062;49.678;24.560;2023-04-01T13:22:04;96567.09;;;13.90;58.56
45327;BME280;31062;49.678;24.560;2023-04-01T13:28:23;96541.72;;;13.82;58.54
45327;BME280;31062;49.678;24.560;2023-04-01T13:31:39;96564.88;;;14.05;55.21
45327;BME280;31062;49.678;24.560;2023-04-01T13:46:54;96575.16;;;14.20;56.07
45327;BME280;31062;49.678;24.560;2023-04-01T13:49:59;96571.75;;;14.21;56.13
45327;BME280;31062;49.678;24.560;2023-04-01T14:05:15;96575.34;;;14.44;56.20
45327;BME280;31062;49.678;24.560;2023-04-01T14:24:17;96593.94;;;14.19;56.71
45327;BME280;31062;49.678;24.560;2023-04-01T14:27:20;96589.91;;;14.22;54.43
45327;BME280;31062;49.678;24.560;2023-04-01T14:47:59;96558.16;;;14.31;54.48
45327;BME280;31062;49.678;24.560;2023-04-01T14:50:54;96576.78;;;14.45;54.56
45327;BME280;31062;49.678;24.560;2023-04-01T14:54:38;96569.16;;;14.45;54.45
45327;BME280;31062;49.678;24.560;2023-04-01T14:57:10;96569.78;;;14.44;53.75
45327;BME280;31062;49.678;24.560;2023-04-01T15:00:18;96443.66;;;13.46;54.74
45327;BME280;31062;49.678;24.560;2023-04-01T15:06:45;96585.25;;;14.47;55.54
45327;BME280;31062;49.678;24.560;2023-04-01T15:09:52;96430.44;;;13.29;55.42
45327;BME280;31062;49.678;24.560;2023-04-01T15:41:21;96505.50;;;13.63;56.37
45327;BME280;31062;49.678;24.560;2023-04-01T15:47:35;96577.34;;;14.04;56.20
45327;BME280;31062;49.678;24.560;2023-04-01T15:56:28;96570.63;;;13.73;57.14
45327;BME280;31062;49.678;24.560;2023-04-01T16:08:56;96624.34;;;13.76;57.03
45327;BME280;31062;49.678;24.560;2023-04-01T16:24:33;96634.66;;;13.56;57.28
45327;BME280;31062;49.678;24.560;2023-04-01T16:27:36;96632.50;;;13.54;57.69
45327;BME280;31062;49.678;24.560;2023-04-01T16:30:38;96644.75;;;13.47;57.49
45327;BME280;31062;49.678;24.560;2023-04-01T16:36:30;96621.50;;;13.23;58.09
45327;BME280;31062;49.678;24.560;2023-04-01T16:42:18;96650.72;;;13.39;58.30
45327;BME280;31062;49.678;24.560;2023-04-01T16:47:56;96577.44;;;12.84;58.49
45327;BME280;31062;49.678;24.560;2023-04-01T16:50:58;96514.03;;;12.31;58.21
45327;BME280;31062;49.678;24.560;2023-04-01T16:53:53;96673.06;;;13.41;58.52
45327;BME280;31062;49.678;24.560;2023-04-01T16:56:55;96687.63;;;13.40;58.81
45327;BME280;31062;49.678;24.560;2023-04-01T17:00:15;96679.28;;;13.40;58.71
45327;BME280;31062;49.678;24.560;2023-04-01T17:11:56;96487.56;;;11.97;59.09
45327;BME280;31062;49.678;24.560;2023-04-01T17:15:09;96693.56;;;13.32;59.24
45327;BME280;31062;49.678;24.560;2023-04-01T17:22:07;96585.22;;;12.38;60.00
45327;BME280;31062;49.678;24.560;2023-04-01T17:36:38;96696.72;;;13.09;60.43
45327;BME280;31062;49.678;24.560;2023-04-01T17:39:46;96713.41;;;13.09;60.63
45327;BME280;31062;49.678;24.560;2023-04-01T17:42:50;96535.94;;;11.92;60.44
45327;BME280;31062;49.678;24.560;2023-04-01T17:45:45;96713.22;;;13.05;60.91
45327;BME280;31062;49.678;24.560;2023-04-01T17:54:48;96691.34;;;12.50;62.03
45327;BME280;31062;49.678;24.560;2023-04-01T18:00:54;96605.06;;;11.85;62.25
45327;BME280;31062;49.678;24.560;2023-04-01T18:03:54;96742.66;;;12.79;62.54
45327;BME280;31062;49.678;24.560;2023-04-01T18:16:26;96721.72;;;12.46;63.07
45327;BME280;31062;49.678;24.560;2023-04-01T18:22:25;96598.63;;;11.38;63.47
45327;BME280;31062;49.678;24.560;2023-04-01T18:28:21;96755.19;;;12.48;65.06
45327;BME280;31062;49.678;24.560;2023-04-01T18:31:19;96756.63;;;12.49;65.43
45327;BME280;31062;49.678;24.560;2023-04-01T18:34:17;96757.78;;;12.44;65.46
45327;BME280;31062;49.678;24.560;2023-04-01T18:37:34;96768.97;;;12.46;65.21
45327;BME280;31062;49.678;24.560;2023-04-01T18:56:05;96754.09;;;11.54;66.23
45327;BME280;31062;49.678;24.560;2023-04-01T18:59:05;96736.53;;;11.49;66.67
45327;BME280;31062;49.678;24.560;2023-04-01T19:02:01;96763.31;;;11.44;67.76
45327;BME280;31062;49.678;24.560;2023-04-01T19:05:10;96625.66;;;10.28;68.11
45327;BME280;31062;49.678;24.560;2023-04-01T19:08:18;96657.19;;;10.35;68.70
45327;BME280;31062;49.678;24.560;2023-04-01T19:20:41;96776.97;;;10.99;70.08
45327;BME280;31062;49.678;24.560;2023-04-01T19:23:40;96800.22;;;11.20;69.72
45327;BME280;31062;49.678;24.560;2023-04-01T19:35:42;96809.06;;;11.30;70.32
45327;BME280;31062;49.678;24.560;2023-04-01T19:38:43;96767.53;;;11.04;70.10
45327;BME280;31062;49.678;24.560;2023-04-01T19:41:44;96825.91;;;11.34;70.17
45327;BME280;31062;49.678;24.560;2023-04-01T19:45:49;96632.47;;;10.13;69.52
45327;BME280;31062;49.678;24.560;2023-04-01T19:54:03;96816.38;;;11.37;69.28
45327;BME280;31062;49.678;24.560;2023-04-01T19:57:21;96815.22;;;11.28;69.05
45327;BME280;31062;49.678;24.560;2023-04-01T20:06:47;96846.34;;;11.27;69.36
45327;BME280;31062;49.678;24.560;2023-04-01T20:15:29;96841.28;;;11.10;69.75
45327;BME280;31062;49.678;24.560;2023-04-01T20:21:33;96791.16;;;10.67;69.81
45327;BME280;31062;49.678;24.560;2023-04-01T20:24:24;96787.09;;;10.42;69.94
45327;BME280;31062;49.678;24.560;2023-04-01T20:36:54;96841.44;;;10.86;70.01
45327;BME280;31062;49.678;24.560;2023-04-01T20:46:16;96845.78;;;10.64;70.88
45327;BME280;31062;49.678;24.560;2023-04-01T20:52:31;96842.34;;;10.52;71.24
45327;BME280;31062;49.678;24.560;2023-04-01T20:55:49;96839.44;;;10.50;71.41
45327;BME280;31062;49.678;24.560;2023-04-01T21:04:22;96853.63;;;10.56;71.76
45327;BME280;31062;49.678;24.560;2023-04-01T21:16:44;96728.28;;;9.56;71.87
45327;BME280;31062;49.678;24.560;2023-04-01T21:25:27;96701.16;;;9.29;71.56
45327;BME280;31062;49.678;24.560;2023-04-01T21:31:36;96663.81;;;9.05;71.98
45327;BME280;31062;49.678;24.560;2023-04-01T21:40:38;96824.19;;;10.00;72.57
45327;BME280;31062;49.678;24.560;2023-04-01T21:53:33;96888.63;;;10.38;72.96
45327;BME280;31062;49.678;24.560;2023-04-01T22:08:46;96692.53;;;8.77;73.33
45327;BME280;31062;49.678;24.560;2023-04-01T22:11:40;96919.25;;;10.28;73.80
45327;BME280;31062;49.678;24.560;2023-04-01T22:20:33;96895.84;;;10.43;74.48
45327;BME280;31062;49.678;24.560;2023-04-01T22:26:36;96718.97;;;9.26;74.93
45327;BME280;31062;49.678;24.560;2023-04-01T22:32:43;96749.22;;;9.48;75.43
45327;BME280;31062;49.678;24.560;2023-04-01T22:44:59;96894.59;;;10.57;75.45
45327;BME280;31062;49.678;24.560;2023-04-01T22:47:56;96928.44;;;10.56;75.53
45327;BME280;31062;49.678;24.560;2023-04-01T22:50:51;96916.31;;;10.49;75.66
45327;BME280;31062;49.678;24.560;2023-04-01T22:54:04;96925.84;;;10.46;75.83
45327;BME280;31062;49.678;24.560;2023-04-01T22:57:02;96820.88;;;9.67;75.97
45327;BME280;31062;49.678;24.560;2023-04-01T23:00:03;96861.53;;;9.88;75.80
45327;BME280;31062;49.678;24.560;2023-04-01T23:03:04;96748.53;;;9.24;76.00
45327;BME280;31062;49.678;24.560;2023-04-01T23:05:54;96880.84;;;10.11;75.97
45327;BME280;31062;49.678;24.560;2023-04-01T23:11:36;96897.13;;;10.16;76.36
45327;BME280;31062;49.678;24.560;2023-04-01T23:20:33;96910.81;;;10.26;76.18
45327;BME280;31062;49.678;24.560;2023-04-01T23:26:52;96911.03;;;10.42;75.72
45327;BME280;31062;49.678;24.560;2023-04-01T23:29:40;96838.22;;;9.56;75.56
45327;BME280;31062;49.678;24.560;2023-04-01T23:32:27;96912.72;;;10.47;75.49
45327;BME280;31062;49.678;24.560;2023-04-01T23:35:15;96916.53;;;10.53;75.69
45327;BME280;31062;49.678;24.560;2023-04-01T23:38:02;96880.47;;;10.28;75.39
45327;BME280;31062;49.678;24.560;2023-04-01T23:40:50;96741.56;;;9.34;75.35
45327;BME280;31062;49.678;24.560;2023-04-01T23:43:38;96806.41;;;9.80;75.17
45327;BME280;31062;49.678;24.560;2023-04-01T23:46:26;96918.81;;;10.57;74.45
45327;BME280;31062;49.678;24.560;2023-04-01T23:49:19;96768.69;;;9.50;73.83
45327;BME280;31062;49.678;24.560;2023-04-01T23:52:25;96771.81;;;9.56;73.78
45327;BME280;31062;49.678;24.560;2023-04-01T23:55:22;96924.47;;;10.59;73.75
